sensor_id;sensor_type;location;lat;lon;timestamp;P1;durP1;ratioP1;P2;durP2;ratioP2
67715;SDS011;54508;43.238;25.306;2022-11-14T00:00:09;11.00;;;8.90;;
67715;SDS011;54508;43.238;25.306;2022-11-14T00:02:36;10.90;;;8.43;;
67715;SDS011;54508;43.238;25.306;2022-11-14T00:05:02;12.10;;;8.75;;
67715;SDS011;54508;43.238;25.306;2022-11-14T00:07:31;10.10;;;8.23;;
67715;SDS011;54508;43.238;25.306;2022-11-14T00:09:56;11.30;;;8.23;;
67715;SDS011;54508;43.238;25.306;2022-11-14T00:12:22;9.70;;;7.87;;
67715;SDS011;54508;43.238;25.306;2022-11-14T00:14:48;10.33;;;8.30;;
67715;SDS011;54508;43.238;25.306;2022-11-14T00:17:13;10.95;;;7.80;;
67715;SDS011;54508;43.238;25.306;2022-11-14T00:19:38;10.60;;;8.50;;
67715;SDS011;54508;43.238;25.306;2022-11-14T00:22:04;10.50;;;8.07;;
67715;SDS011;54508;43.238;25.306;2022-11-14T00:24:29;11.03;;;7.40;;
67715;SDS011;54508;43.238;25.306;2022-11-14T00:26:55;10.02;;;8.18;;
67715;SDS011;54508;43.238;25.306;2022-11-14T00:29:20;11.00;;;8.27;;
67715;SDS011;54508;43.238;25.306;2022-11-14T00:31:46;9.17;;;7.90;;
67715;SDS011;54508;43.238;25.306;2022-11-14T00:34:11;9.17;;;7.60;;
67715;SDS011;54508;43.238;25.306;2022-11-14T00:36:36;9.37;;;7.50;;
67715;SDS011;54508;43.238;25.306;2022-11-14T00:39:02;9.15;;;7.35;;
67715;SDS011;54508;43.238;25.306;2022-11-14T00:41:28;9.68;;;7.40;;
67715;SDS011;54508;43.238;25.306;2022-11-14T00:43:54;9.35;;;7.20;;
67715;SDS011;54508;43.238;25.306;2022-11-14T00:46:20;9.37;;;7.10;;
67715;SDS011;54508;43.238;25.306;2022-11-14T00:48:45;9.70;;;7.25;;
67715;SDS011;54508;43.238;25.306;2022-11-14T00:51:11;8.38;;;6.93;;
67715;SDS011;54508;43.238;25.306;2022-11-14T00:53:36;8.83;;;6.60;;
67715;SDS011;54508;43.238;25.306;2022-11-14T00:56:02;11.38;;;7.55;;
67715;SDS011;54508;43.238;25.306;2022-11-14T00:58:28;8.95;;;7.03;;
67715;SDS011;54508;43.238;25.306;2022-11-14T01:00:53;9.40;;;7.25;;
67715;SDS011;54508;43.238;25.306;2022-11-14T01:03:19;8.20;;;6.88;;
67715;SDS011;54508;43.238;25.306;2022-11-14T01:05:46;8.60;;;6.73;;
67715;SDS011;54508;43.238;25.306;2022-11-14T01:08:14;9.40;;;6.82;;
67715;SDS011;54508;43.238;25.306;2022-11-14T01:10:42;8.50;;;6.85;;
67715;SDS011;54508;43.238;25.306;2022-11-14T01:13:09;8.73;;;6.72;;
67715;SDS011;54508;43.238;25.306;2022-11-14T01:15:39;9.23;;;6.43;;
67715;SDS011;54508;43.238;25.306;2022-11-14T01:18:05;8.30;;;6.45;;
67715;SDS011;54508;43.238;25.306;2022-11-14T01:20:30;7.83;;;6.50;;
67715;SDS011;54508;43.238;25.306;2022-11-14T01:22:56;7.60;;;6.05;;
67715;SDS011;54508;43.238;25.306;2022-11-14T01:25:21;8.68;;;6.60;;
67715;SDS011;54508;43.238;25.306;2022-11-14T01:27:46;8.03;;;6.40;;
67715;SDS011;54508;43.238;25.306;2022-11-14T01:30:12;8.40;;;6.57;;
67715;SDS011;54508;43.238;25.306;2022-11-14T01:32:38;11.25;;;6.47;;
67715;SDS011;54508;43.238;25.306;2022-11-14T01:35:03;9.27;;;6.00;;
67715;SDS011;54508;43.238;25.306;2022-11-14T01:37:29;9.17;;;7.23;;
67715;SDS011;54508;43.238;25.306;2022-11-14T01:39:54;7.47;;;6.67;;
67715;SDS011;54508;43.238;25.306;2022-11-14T01:42:20;7.90;;;6.47;;
67715;SDS011;54508;43.238;25.306;2022-11-14T01:44:49;7.30;;;6.30;;
67715;SDS011;54508;43.238;25.306;2022-11-14T01:47:21;7.38;;;6.25;;
67715;SDS011;54508;43.238;25.306;2022-11-14T01:49:55;7.90;;;6.28;;
67715;SDS011;54508;43.238;25.306;2022-11-14T01:52:35;8.20;;;6.70;;
67715;SDS011;54508;43.238;25.306;2022-11-14T01:55:04;7.75;;;6.78;;
67715;SDS011;54508;43.238;25.306;2022-11-14T01:57:32;6.93;;;5.97;;
67715;SDS011;54508;43.238;25.306;2022-11-14T02:00:04;7.38;;;5.82;;
67715;SDS011;54508;43.238;25.306;2022-11-14T02:02:32;8.55;;;6.18;;
67715;SDS011;54508;43.238;25.306;2022-11-14T02:05:08;7.60;;;6.20;;
67715;SDS011;54508;43.238;25.306;2022-11-14T02:07:36;7.10;;;5.85;;
67715;SDS011;54508;43.238;25.306;2022-11-14T02:10:05;8.30;;;5.20;;
67715;SDS011;54508;43.238;25.306;2022-11-14T02:12:33;7.35;;;5.32;;
67715;SDS011;54508;43.238;25.306;2022-11-14T02:14:58;7.53;;;5.80;;
67715;SDS011;54508;43.238;25.306;2022-11-14T02:17:25;7.95;;;5.93;;
67715;SDS011;54508;43.238;25.306;2022-11-14T02:22:17;6.60;;;5.70;;
67715;SDS011;54508;43.238;25.306;2022-11-14T02:24:43;7.03;;;5.17;;
67715;SDS011;54508;43.238;25.306;2022-11-14T02:27:09;7.00;;;5.50;;
67715;SDS011;54508;43.238;25.306;2022-11-14T02:29:35;6.93;;;5.17;;
67715;SDS011;54508;43.238;25.306;2022-11-14T02:32:00;7.13;;;5.38;;
67715;SDS011;54508;43.238;25.306;2022-11-14T02:34:26;6.80;;;5.57;;
67715;SDS011;54508;43.238;25.306;2022-11-14T02:36:51;6.73;;;5.40;;
67715;SDS011;54508;43.238;25.306;2022-11-14T02:39:17;6.43;;;5.43;;
67715;SDS011;54508;43.238;25.306;2022-11-14T02:41:43;6.13;;;5.17;;
67715;SDS011;54508;43.238;25.306;2022-11-14T02:44:08;7.03;;;5.47;;
67715;SDS011;54508;43.238;25.306;2022-11-14T02:46:33;6.70;;;5.25;;
67715;SDS011;54508;43.238;25.306;2022-11-14T02:48:59;6.27;;;5.20;;
67715;SDS011;54508;43.238;25.306;2022-11-14T02:51:24;7.50;;;5.80;;
67715;SDS011;54508;43.238;25.306;2022-11-14T02:53:50;6.90;;;5.40;;
67715;SDS011;54508;43.238;25.306;2022-11-14T02:56:15;7.40;;;5.63;;
67715;SDS011;54508;43.238;25.306;2022-11-14T02:58:41;7.00;;;5.63;;
67715;SDS011;54508;43.238;25.306;2022-11-14T03:01:06;6.47;;;5.00;;
67715;SDS011;54508;43.238;25.306;2022-11-14T03:03:32;6.97;;;5.20;;
67715;SDS011;54508;43.238;25.306;2022-11-14T03:05:58;5.93;;;4.90;;
67715;SDS011;54508;43.238;25.306;2022-11-14T03:08:24;6.22;;;5.00;;
67715;SDS011;54508;43.238;25.306;2022-11-14T03:10:49;6.63;;;5.30;;
67715;SDS011;54508;43.238;25.306;2022-11-14T03:13:15;7.13;;;5.70;;
67715;SDS011;54508;43.238;25.306;2022-11-14T03:15:40;5.82;;;5.05;;
67715;SDS011;54508;43.238;25.306;2022-11-14T03:18:05;6.63;;;5.20;;
67715;SDS011;54508;43.238;25.306;2022-11-14T03:20:31;6.10;;;5.07;;
67715;SDS011;54508;43.238;25.306;2022-11-14T03:22:56;7.30;;;4.90;;
67715;SDS011;54508;43.238;25.306;2022-11-14T03:25:22;6.03;;;4.93;;
67715;SDS011;54508;43.238;25.306;2022-11-14T03:27:47;5.35;;;4.82;;
67715;SDS011;54508;43.238;25.306;2022-11-14T03:30:13;5.70;;;4.60;;
67715;SDS011;54508;43.238;25.306;2022-11-14T03:32:38;5.20;;;4.70;;
67715;SDS011;54508;43.238;25.306;2022-11-14T03:35:04;6.22;;;4.70;;
67715;SDS011;54508;43.238;25.306;2022-11-14T03:37:30;5.90;;;4.90;;
67715;SDS011;54508;43.238;25.306;2022-11-14T03:39:55;5.97;;;4.53;;
67715;SDS011;54508;43.238;25.306;2022-11-14T03:42:20;5.13;;;4.50;;
67715;SDS011;54508;43.238;25.306;2022-11-14T03:44:46;6.97;;;5.57;;
67715;SDS011;54508;43.238;25.306;2022-11-14T03:47:11;6.80;;;5.10;;
67715;SDS011;54508;43.238;25.306;2022-11-14T03:49:37;6.13;;;4.95;;
67715;SDS011;54508;43.238;25.306;2022-11-14T03:52:02;5.82;;;4.57;;
67715;SDS011;54508;43.238;25.306;2022-11-14T03:54:28;6.03;;;5.00;;
67715;SDS011;54508;43.238;25.306;2022-11-14T03:56:53;5.17;;;4.40;;
67715;SDS011;54508;43.238;25.306;2022-11-14T03:59:19;5.43;;;4.57;;
67715;SDS011;54508;43.238;25.306;2022-11-14T04:01:44;5.18;;;4.60;;
67715;SDS011;54508;43.238;25.306;2022-11-14T04:04:10;6.07;;;4.67;;
67715;SDS011;54508;43.238;25.306;2022-11-14T04:06:36;5.13;;;4.50;;
67715;SDS011;54508;43.238;25.306;2022-11-14T04:09:02;5.93;;;4.83;;
67715;SDS011;54508;43.238;25.306;2022-11-14T04:11:28;5.57;;;4.53;;
67715;SDS011;54508;43.238;25.306;2022-11-14T04:13:53;5.83;;;4.70;;
67715;SDS011;54508;43.238;25.306;2022-11-14T04:16:19;5.97;;;4.63;;
67715;SDS011;54508;43.238;25.306;2022-11-14T04:18:44;5.83;;;4.87;;
67715;SDS011;54508;43.238;25.306;2022-11-14T04:21:09;6.43;;;5.10;;
67715;SDS011;54508;43.238;25.306;2022-11-14T04:23:35;5.38;;;4.50;;
67715;SDS011;54508;43.238;25.306;2022-11-14T04:26:00;5.60;;;4.50;;
67715;SDS011;54508;43.238;25.306;2022-11-14T04:28:26;5.27;;;4.33;;
67715;SDS011;54508;43.238;25.306;2022-11-14T04:30:51;5.23;;;4.67;;
67715;SDS011;54508;43.238;25.306;2022-11-14T04:33:17;5.63;;;4.60;;
67715;SDS011;54508;43.238;25.306;2022-11-14T04:35:42;5.33;;;4.80;;
67715;SDS011;54508;43.238;25.306;2022-11-14T04:38:08;6.20;;;5.10;;
67715;SDS011;54508;43.238;25.306;2022-11-14T04:40:34;5.57;;;4.97;;
67715;SDS011;54508;43.238;25.306;2022-11-14T04:43:00;6.63;;;4.87;;
67715;SDS011;54508;43.238;25.306;2022-11-14T04:45:25;5.43;;;4.80;;
67715;SDS011;54508;43.238;25.306;2022-11-14T04:47:51;5.23;;;4.73;;
67715;SDS011;54508;43.238;25.306;2022-11-14T04:50:16;6.07;;;4.57;;
67715;SDS011;54508;43.238;25.306;2022-11-14T04:52:42;6.87;;;5.40;;
67715;SDS011;54508;43.238;25.306;2022-11-14T04:55:07;5.33;;;4.30;;
67715;SDS011;54508;43.238;25.306;2022-11-14T04:57:33;4.93;;;4.35;;
67715;SDS011;54508;43.238;25.306;2022-11-14T04:59:58;5.57;;;4.57;;
67715;SDS011;54508;43.238;25.306;2022-11-14T05:02:24;5.37;;;4.67;;
67715;SDS011;54508;43.238;25.306;2022-11-14T05:04:49;5.47;;;4.20;;
67715;SDS011;54508;43.238;25.306;2022-11-14T05:07:15;5.33;;;4.23;;
67715;SDS011;54508;43.238;25.306;2022-11-14T05:09:40;5.15;;;4.57;;
67715;SDS011;54508;43.238;25.306;2022-11-14T05:12:06;5.73;;;4.50;;
67715;SDS011;54508;43.238;25.306;2022-11-14T05:14:31;5.70;;;4.63;;
67715;SDS011;54508;43.238;25.306;2022-11-14T05:16:57;5.38;;;4.78;;
67715;SDS011;54508;43.238;25.306;2022-11-14T05:19:22;5.25;;;4.50;;
67715;SDS011;54508;43.238;25.306;2022-11-14T05:21:48;5.83;;;4.50;;
67715;SDS011;54508;43.238;25.306;2022-11-14T05:24:14;5.03;;;4.53;;
67715;SDS011;54508;43.238;25.306;2022-11-14T05:26:39;5.27;;;4.60;;
67715;SDS011;54508;43.238;25.306;2022-11-14T05:29:05;4.90;;;4.30;;
67715;SDS011;54508;43.238;25.306;2022-11-14T05:31:30;6.47;;;4.43;;
67715;SDS011;54508;43.238;25.306;2022-11-14T05:33:55;4.43;;;4.00;;
67715;SDS011;54508;43.238;25.306;2022-11-14T05:36:21;9.83;;;4.30;;
67715;SDS011;54508;43.238;25.306;2022-11-14T05:38:46;6.00;;;4.20;;
67715;SDS011;54508;43.238;25.306;2022-11-14T05:41:13;5.87;;;4.27;;
67715;SDS011;54508;43.238;25.306;2022-11-14T05:43:40;4.75;;;4.03;;
67715;SDS011;54508;43.238;25.306;2022-11-14T05:46:08;5.45;;;4.18;;
67715;SDS011;54508;43.238;25.306;2022-11-14T05:48:34;5.03;;;3.92;;
67715;SDS011;54508;43.238;25.306;2022-11-14T05:51:00;5.47;;;4.73;;
67715;SDS011;54508;43.238;25.306;2022-11-14T05:53:27;5.70;;;4.78;;
67715;SDS011;54508;43.238;25.306;2022-11-14T05:55:53;5.55;;;4.47;;
67715;SDS011;54508;43.238;25.306;2022-11-14T05:58:19;6.23;;;5.00;;
67715;SDS011;54508;43.238;25.306;2022-11-14T06:00:45;5.72;;;4.55;;
67715;SDS011;54508;43.238;25.306;2022-11-14T06:03:10;5.43;;;4.57;;
67715;SDS011;54508;43.238;25.306;2022-11-14T06:05:38;6.20;;;4.28;;
67715;SDS011;54508;43.238;25.306;2022-11-14T06:08:04;6.88;;;4.40;;
67715;SDS011;54508;43.238;25.306;2022-11-14T06:10:29;6.00;;;4.73;;
67715;SDS011;54508;43.238;25.306;2022-11-14T06:12:55;7.17;;;4.47;;
67715;SDS011;54508;43.238;25.306;2022-11-14T06:15:20;6.37;;;4.83;;
67715;SDS011;54508;43.238;25.306;2022-11-14T06:17:46;5.45;;;4.50;;
67715;SDS011;54508;43.238;25.306;2022-11-14T06:20:11;7.43;;;4.83;;
67715;SDS011;54508;43.238;25.306;2022-11-14T06:22:38;6.25;;;5.15;;
67715;SDS011;54508;43.238;25.306;2022-11-14T06:25:04;6.07;;;4.53;;
67715;SDS011;54508;43.238;25.306;2022-11-14T06:27:30;6.45;;;4.88;;
67715;SDS011;54508;43.238;25.306;2022-11-14T06:29:55;7.13;;;4.27;;
67715;SDS011;54508;43.238;25.306;2022-11-14T06:32:23;5.97;;;4.80;;
67715;SDS011;54508;43.238;25.306;2022-11-14T06:34:49;9.17;;;4.70;;
67715;SDS011;54508;43.238;25.306;2022-11-14T06:37:14;10.75;;;4.90;;
67715;SDS011;54508;43.238;25.306;2022-11-14T06:39:39;7.43;;;5.03;;
67715;SDS011;54508;43.238;25.306;2022-11-14T06:42:05;10.13;;;7.60;;
67715;SDS011;54508;43.238;25.306;2022-11-14T06:44:30;8.40;;;6.33;;
67715;SDS011;54508;43.238;25.306;2022-11-14T06:46:56;9.47;;;7.03;;
67715;SDS011;54508;43.238;25.306;2022-11-14T06:49:21;8.88;;;6.07;;
67715;SDS011;54508;43.238;25.306;2022-11-14T06:51:49;8.10;;;6.25;;
67715;SDS011;54508;43.238;25.306;2022-11-14T06:54:15;8.82;;;5.60;;
67715;SDS011;54508;43.238;25.306;2022-11-14T06:56:40;9.55;;;6.00;;
67715;SDS011;54508;43.238;25.306;2022-11-14T06:59:05;12.70;;;6.70;;
67715;SDS011;54508;43.238;25.306;2022-11-14T07:01:31;10.60;;;6.60;;
67715;SDS011;54508;43.238;25.306;2022-11-14T07:03:56;9.23;;;5.53;;
67715;SDS011;54508;43.238;25.306;2022-11-14T07:06:24;9.90;;;5.57;;
67715;SDS011;54508;43.238;25.306;2022-11-14T07:08:51;9.43;;;6.00;;
67715;SDS011;54508;43.238;25.306;2022-11-14T07:11:18;12.95;;;9.98;;
67715;SDS011;54508;43.238;25.306;2022-11-14T07:13:50;16.38;;;11.27;;
67715;SDS011;54508;43.238;25.306;2022-11-14T07:16:16;15.57;;;10.68;;
67715;SDS011;54508;43.238;25.306;2022-11-14T07:18:42;14.20;;;10.40;;
67715;SDS011;54508;43.238;25.306;2022-11-14T07:21:08;16.67;;;10.17;;
67715;SDS011;54508;43.238;25.306;2022-11-14T07:23:34;15.40;;;8.87;;
67715;SDS011;54508;43.238;25.306;2022-11-14T07:26:01;14.35;;;8.95;;
67715;SDS011;54508;43.238;25.306;2022-11-14T07:28:27;15.52;;;8.90;;
67715;SDS011;54508;43.238;25.306;2022-11-14T07:30:53;15.65;;;8.52;;
67715;SDS011;54508;43.238;25.306;2022-11-14T07:33:18;13.90;;;8.90;;
67715;SDS011;54508;43.238;25.306;2022-11-14T07:35:44;11.57;;;8.20;;
67715;SDS011;54508;43.238;25.306;2022-11-14T07:38:09;11.83;;;7.70;;
67715;SDS011;54508;43.238;25.306;2022-11-14T07:40:35;12.25;;;8.65;;
67715;SDS011;54508;43.238;25.306;2022-11-14T07:43:00;13.73;;;7.23;;
67715;SDS011;54508;43.238;25.306;2022-11-14T07:45:27;12.38;;;8.15;;
67715;SDS011;54508;43.238;25.306;2022-11-14T07:47:56;15.75;;;9.10;;
67715;SDS011;54508;43.238;25.306;2022-11-14T07:50:22;14.90;;;8.50;;
67715;SDS011;54508;43.238;25.306;2022-11-14T07:52:49;20.20;;;8.93;;
67715;SDS011;54508;43.238;25.306;2022-11-14T07:55:18;14.45;;;8.20;;
67715;SDS011;54508;43.238;25.306;2022-11-14T07:57:44;10.68;;;7.78;;
67715;SDS011;54508;43.238;25.306;2022-11-14T08:00:10;11.83;;;8.50;;
67715;SDS011;54508;43.238;25.306;2022-11-14T08:02:38;11.88;;;8.02;;
67715;SDS011;54508;43.238;25.306;2022-11-14T08:05:03;14.70;;;7.70;;
67715;SDS011;54508;43.238;25.306;2022-11-14T08:07:29;14.18;;;8.13;;
67715;SDS011;54508;43.238;25.306;2022-11-14T08:09:54;11.40;;;7.77;;
67715;SDS011;54508;43.238;25.306;2022-11-14T08:12:20;16.80;;;7.17;;
67715;SDS011;54508;43.238;25.306;2022-11-14T08:14:45;15.57;;;8.57;;
67715;SDS011;54508;43.238;25.306;2022-11-14T08:17:11;14.35;;;8.40;;
67715;SDS011;54508;43.238;25.306;2022-11-14T08:19:36;16.53;;;8.60;;
67715;SDS011;54508;43.238;25.306;2022-11-14T08:22:02;15.70;;;8.83;;
67715;SDS011;54508;43.238;25.306;2022-11-14T08:24:27;16.83;;;8.77;;
67715;SDS011;54508;43.238;25.306;2022-11-14T08:26:53;17.77;;;8.77;;
67715;SDS011;54508;43.238;25.306;2022-11-14T08:29:18;13.20;;;8.23;;
67715;SDS011;54508;43.238;25.306;2022-11-14T08:31:44;14.10;;;8.83;;
67715;SDS011;54508;43.238;25.306;2022-11-14T08:34:10;16.02;;;8.35;;
67715;SDS011;54508;43.238;25.306;2022-11-14T08:36:36;19.43;;;10.10;;
67715;SDS011;54508;43.238;25.306;2022-11-14T08:39:01;18.42;;;9.95;;
67715;SDS011;54508;43.238;25.306;2022-11-14T08:41:26;16.13;;;8.87;;
67715;SDS011;54508;43.238;25.306;2022-11-14T08:43:52;15.43;;;9.03;;
67715;SDS011;54508;43.238;25.306;2022-11-14T08:46:18;14.53;;;9.03;;
67715;SDS011;54508;43.238;25.306;2022-11-14T08:48:43;16.35;;;9.07;;
67715;SDS011;54508;43.238;25.306;2022-11-14T08:51:08;20.00;;;9.63;;
67715;SDS011;54508;43.238;25.306;2022-11-14T08:53:34;19.87;;;10.27;;
67715;SDS011;54508;43.238;25.306;2022-11-14T08:55:59;18.63;;;11.10;;
67715;SDS011;54508;43.238;25.306;2022-11-14T08:58:28;20.63;;;9.52;;
67715;SDS011;54508;43.238;25.306;2022-11-14T09:00:58;24.25;;;11.18;;
67715;SDS011;54508;43.238;25.306;2022-11-14T09:03:27;20.38;;;10.18;;
67715;SDS011;54508;43.238;25.306;2022-11-14T09:05:52;18.45;;;9.23;;
67715;SDS011;54508;43.238;25.306;2022-11-14T09:08:18;15.77;;;9.10;;
67715;SDS011;54508;43.238;25.306;2022-11-14T09:10:44;23.50;;;9.07;;
67715;SDS011;54508;43.238;25.306;2022-11-14T09:13:09;19.02;;;8.45;;
67715;SDS011;54508;43.238;25.306;2022-11-14T09:15:35;17.63;;;9.93;;
67715;SDS011;54508;43.238;25.306;2022-11-14T09:18:00;15.98;;;10.02;;
67715;SDS011;54508;43.238;25.306;2022-11-14T09:20:26;15.82;;;9.60;;
67715;SDS011;54508;43.238;25.306;2022-11-14T09:22:56;19.38;;;11.05;;
67715;SDS011;54508;43.238;25.306;2022-11-14T09:25:22;17.38;;;10.50;;
67715;SDS011;54508;43.238;25.306;2022-11-14T09:27:48;16.47;;;9.90;;
67715;SDS011;54508;43.238;25.306;2022-11-14T09:30:13;14.90;;;9.50;;
67715;SDS011;54508;43.238;25.306;2022-11-14T09:32:39;13.63;;;8.50;;
67715;SDS011;54508;43.238;25.306;2022-11-14T09:35:05;16.83;;;10.07;;
67715;SDS011;54508;43.238;25.306;2022-11-14T09:37:30;15.55;;;9.52;;
67715;SDS011;54508;43.238;25.306;2022-11-14T09:39:56;22.58;;;9.60;;
67715;SDS011;54508;43.238;25.306;2022-11-14T09:44:54;16.30;;;8.65;;
67715;SDS011;54508;43.238;25.306;2022-11-14T09:47:23;10.77;;;7.50;;
67715;SDS011;54508;43.238;25.306;2022-11-14T09:49:53;13.20;;;7.75;;
67715;SDS011;54508;43.238;25.306;2022-11-14T09:55:11;12.57;;;7.63;;
67715;SDS011;54508;43.238;25.306;2022-11-14T09:57:37;14.02;;;8.43;;
67715;SDS011;54508;43.238;25.306;2022-11-14T10:00:10;20.13;;;8.53;;
67715;SDS011;54508;43.238;25.306;2022-11-14T10:15:47;15.05;;;9.13;;
67715;SDS011;54508;43.238;25.306;2022-11-14T10:18:42;16.48;;;9.32;;
67715;SDS011;54508;43.238;25.306;2022-11-14T10:21:34;16.00;;;9.00;;
67715;SDS011;54508;43.238;25.306;2022-11-14T10:24:08;13.57;;;9.43;;
67715;SDS011;54508;43.238;25.306;2022-11-14T10:26:53;15.07;;;7.80;;
67715;SDS011;54508;43.238;25.306;2022-11-14T10:34:55;11.20;;;7.45;;
67715;SDS011;54508;43.238;25.306;2022-11-14T10:37:36;20.27;;;7.90;;
67715;SDS011;54508;43.238;25.306;2022-11-14T10:40:27;12.90;;;7.70;;
67715;SDS011;54508;43.238;25.306;2022-11-14T10:43:23;14.23;;;7.95;;
67715;SDS011;54508;43.238;25.306;2022-11-14T10:45:53;13.30;;;7.82;;
67715;SDS011;54508;43.238;25.306;2022-11-14T10:48:29;9.95;;;6.90;;
67715;SDS011;54508;43.238;25.306;2022-11-14T10:56:28;9.65;;;6.82;;
67715;SDS011;54508;43.238;25.306;2022-11-14T10:58:53;11.85;;;6.88;;
67715;SDS011;54508;43.238;25.306;2022-11-14T11:01:34;13.75;;;7.13;;
67715;SDS011;54508;43.238;25.306;2022-11-14T11:09:33;13.13;;;8.30;;
67715;SDS011;54508;43.238;25.306;2022-11-14T11:12:20;17.55;;;8.77;;
67715;SDS011;54508;43.238;25.306;2022-11-14T11:18:03;13.20;;;9.02;;
67715;SDS011;54508;43.238;25.306;2022-11-14T11:20:37;14.60;;;8.25;;
67715;SDS011;54508;43.238;25.306;2022-11-14T11:25:33;12.05;;;7.68;;
67715;SDS011;54508;43.238;25.306;2022-11-14T11:30:31;13.05;;;7.78;;
67715;SDS011;54508;43.238;25.306;2022-11-14T11:33:13;9.82;;;7.35;;
67715;SDS011;54508;43.238;25.306;2022-11-14T11:35:44;10.27;;;7.38;;
67715;SDS011;54508;43.238;25.306;2022-11-14T11:38:17;10.95;;;7.78;;
67715;SDS011;54508;43.238;25.306;2022-11-14T11:40:44;12.25;;;7.13;;
67715;SDS011;54508;43.238;25.306;2022-11-14T11:45:47;11.50;;;7.25;;
67715;SDS011;54508;43.238;25.306;2022-11-14T11:50:42;11.50;;;7.05;;
67715;SDS011;54508;43.238;25.306;2022-11-14T11:55:58;13.98;;;7.60;;
67715;SDS011;54508;43.238;25.306;2022-11-14T12:01:08;13.33;;;9.57;;
67715;SDS011;54508;43.238;25.306;2022-11-14T12:03:34;15.55;;;9.63;;
67715;SDS011;54508;43.238;25.306;2022-11-14T12:11:15;15.27;;;8.80;;
67715;SDS011;54508;43.238;25.306;2022-11-14T12:21:42;14.35;;;8.73;;
67715;SDS011;54508;43.238;25.306;2022-11-14T12:24:22;12.05;;;7.55;;
67715;SDS011;54508;43.238;25.306;2022-11-14T12:27:09;12.80;;;7.15;;
67715;SDS011;54508;43.238;25.306;2022-11-14T12:32:32;12.07;;;7.50;;
67715;SDS011;54508;43.238;25.306;2022-11-14T12:35:10;14.32;;;6.97;;
67715;SDS011;54508;43.238;25.306;2022-11-14T12:37:44;10.48;;;6.63;;
67715;SDS011;54508;43.238;25.306;2022-11-14T12:40:30;13.18;;;7.68;;
67715;SDS011;54508;43.238;25.306;2022-11-14T12:42:58;13.40;;;6.97;;
67715;SDS011;54508;43.238;25.306;2022-11-14T12:50:55;12.73;;;6.55;;
67715;SDS011;54508;43.238;25.306;2022-11-14T12:58:49;13.10;;;6.85;;
67715;SDS011;54508;43.238;25.306;2022-11-14T13:01:23;16.38;;;7.50;;
67715;SDS011;54508;43.238;25.306;2022-11-14T13:09:32;14.17;;;8.10;;
67715;SDS011;54508;43.238;25.306;2022-11-14T13:21:04;19.30;;;7.93;;
67715;SDS011;54508;43.238;25.306;2022-11-14T13:23:58;31.00;;;7.70;;
67715;SDS011;54508;43.238;25.306;2022-11-14T13:28:50;12.37;;;7.33;;
67715;SDS011;54508;43.238;25.306;2022-11-14T13:33:45;9.95;;;6.70;;
67715;SDS011;54508;43.238;25.306;2022-11-14T13:49:12;8.32;;;6.20;;
67715;SDS011;54508;43.238;25.306;2022-11-14T13:51:57;11.88;;;6.70;;
67715;SDS011;54508;43.238;25.306;2022-11-14T13:54:22;10.02;;;6.43;;
67715;SDS011;54508;43.238;25.306;2022-11-14T14:02:15;9.93;;;6.65;;
67715;SDS011;54508;43.238;25.306;2022-11-14T14:32:25;17.33;;;7.60;;
67715;SDS011;54508;43.238;25.306;2022-11-14T14:34:50;10.20;;;6.60;;
67715;SDS011;54508;43.238;25.306;2022-11-14T14:37:24;20.15;;;7.80;;
67715;SDS011;54508;43.238;25.306;2022-11-14T14:39:55;15.52;;;8.15;;
67715;SDS011;54508;43.238;25.306;2022-11-14T14:42:25;20.50;;;8.45;;
67715;SDS011;54508;43.238;25.306;2022-11-14T14:44:52;13.75;;;7.97;;
67715;SDS011;54508;43.238;25.306;2022-11-14T14:50:22;16.05;;;7.45;;
67715;SDS011;54508;43.238;25.306;2022-11-14T14:52:58;18.38;;;7.22;;
67715;SDS011;54508;43.238;25.306;2022-11-14T14:55:32;19.90;;;7.82;;
67715;SDS011;54508;43.238;25.306;2022-11-14T14:58:11;17.25;;;7.32;;
67715;SDS011;54508;43.238;25.306;2022-11-14T15:04:00;15.00;;;7.85;;
67715;SDS011;54508;43.238;25.306;2022-11-14T15:06:29;14.98;;;7.07;;
67715;SDS011;54508;43.238;25.306;2022-11-14T15:09:20;20.35;;;7.72;;
67715;SDS011;54508;43.238;25.306;2022-11-14T15:11:48;14.88;;;7.57;;
67715;SDS011;54508;43.238;25.306;2022-11-14T15:14:16;16.38;;;9.20;;
67715;SDS011;54508;43.238;25.306;2022-11-14T15:16:44;19.23;;;8.10;;
67715;SDS011;54508;43.238;25.306;2022-11-14T15:19:13;14.70;;;8.25;;
67715;SDS011;54508;43.238;25.306;2022-11-14T15:21:40;14.52;;;7.70;;
67715;SDS011;54508;43.238;25.306;2022-11-14T15:26:42;19.13;;;8.88;;
67715;SDS011;54508;43.238;25.306;2022-11-14T15:31:54;15.70;;;7.47;;
67715;SDS011;54508;43.238;25.306;2022-11-14T15:34:27;14.50;;;7.82;;
67715;SDS011;54508;43.238;25.306;2022-11-14T15:37:03;13.20;;;7.82;;
67715;SDS011;54508;43.238;25.306;2022-11-14T15:39:40;17.38;;;7.53;;
67715;SDS011;54508;43.238;25.306;2022-11-14T15:42:13;18.27;;;7.65;;
67715;SDS011;54508;43.238;25.306;2022-11-14T15:44:48;17.45;;;8.02;;
67715;SDS011;54508;43.238;25.306;2022-11-14T15:47:18;13.18;;;7.53;;
67715;SDS011;54508;43.238;25.306;2022-11-14T15:50:01;18.70;;;9.88;;
67715;SDS011;54508;43.238;25.306;2022-11-14T15:54:58;19.85;;;7.88;;
67715;SDS011;54508;43.238;25.306;2022-11-14T15:57:24;11.40;;;7.60;;
67715;SDS011;54508;43.238;25.306;2022-11-14T15:59:49;14.17;;;7.87;;
67715;SDS011;54508;43.238;25.306;2022-11-14T16:02:20;13.83;;;7.77;;
67715;SDS011;54508;43.238;25.306;2022-11-14T16:04:46;12.98;;;7.47;;
67715;SDS011;54508;43.238;25.306;2022-11-14T16:07:14;14.88;;;7.60;;
67715;SDS011;54508;43.238;25.306;2022-11-14T16:09:40;12.50;;;6.95;;
67715;SDS011;54508;43.238;25.306;2022-11-14T16:12:06;8.67;;;6.80;;
67715;SDS011;54508;43.238;25.306;2022-11-14T16:14:32;9.57;;;7.13;;
67715;SDS011;54508;43.238;25.306;2022-11-14T16:16:57;11.13;;;7.27;;
67715;SDS011;54508;43.238;25.306;2022-11-14T16:19:23;15.25;;;7.72;;
67715;SDS011;54508;43.238;25.306;2022-11-14T16:21:49;9.50;;;7.53;;
67715;SDS011;54508;43.238;25.306;2022-11-14T16:24:16;11.50;;;7.90;;
67715;SDS011;54508;43.238;25.306;2022-11-14T16:26:43;12.68;;;7.57;;
67715;SDS011;54508;43.238;25.306;2022-11-14T16:29:08;9.60;;;7.13;;
67715;SDS011;54508;43.238;25.306;2022-11-14T16:31:34;13.68;;;8.07;;
67715;SDS011;54508;43.238;25.306;2022-11-14T16:34:00;10.25;;;7.78;;
67715;SDS011;54508;43.238;25.306;2022-11-14T16:36:25;13.32;;;7.28;;
67715;SDS011;54508;43.238;25.306;2022-11-14T16:38:51;11.93;;;7.65;;
67715;SDS011;54508;43.238;25.306;2022-11-14T16:41:20;12.20;;;7.53;;
67715;SDS011;54508;43.238;25.306;2022-11-14T16:43:46;12.97;;;7.63;;
67715;SDS011;54508;43.238;25.306;2022-11-14T16:46:11;13.70;;;7.50;;
67715;SDS011;54508;43.238;25.306;2022-11-14T16:48:36;11.77;;;7.30;;
67715;SDS011;54508;43.238;25.306;2022-11-14T16:51:02;11.30;;;7.75;;
67715;SDS011;54508;43.238;25.306;2022-11-14T16:53:28;14.85;;;9.10;;
67715;SDS011;54508;43.238;25.306;2022-11-14T16:55:54;9.82;;;7.47;;
67715;SDS011;54508;43.238;25.306;2022-11-14T16:58:20;12.90;;;8.05;;
67715;SDS011;54508;43.238;25.306;2022-11-14T17:00:46;12.77;;;8.00;;
67715;SDS011;54508;43.238;25.306;2022-11-14T17:03:11;14.83;;;7.93;;
67715;SDS011;54508;43.238;25.306;2022-11-14T17:05:43;11.57;;;7.68;;
67715;SDS011;54508;43.238;25.306;2022-11-14T17:08:09;12.23;;;7.80;;
67715;SDS011;54508;43.238;25.306;2022-11-14T17:10:38;9.27;;;7.50;;
67715;SDS011;54508;43.238;25.306;2022-11-14T17:13:07;11.80;;;7.78;;